Arlington, CA

1:44 PM PDT on March 28, 2017 (GMT -0700)
Airport Area | | Change Station
Active Advisory: Wind Advisory

Elev 748 ft 33.94 °N, 117.45 °W | Updated 23 seconds ago

Partly Cloudy
Partly Cloudy
75.6 °F
Feels Like 75 °F
N
14.1
Wind Variable Wind from NNW
Gusts 17.5 mph

Today
High -- | Low -- °F
--% Chance of Precip.
Yesterday
High -- | Low -- °F
Precip. -- in
Pressure 29.99 in
Visibility 10.0 miles
Clouds Few 25000 ft
Heat Index 75 °F
Dew Point 15 °F
Humidity 10%
Rainfall 0.00 in
Snow Depth Not available.
6:42 AM 7:07 PM
New Moon, 1% visible
METAR KRAL 281953Z 36015G24KT 10SM FEW250 23/M04 A3002 RMK AO2 PK WND 01027/1921 SLP153 T02331044
Pressure 29.99 in
Visibility 10.0 miles
Clouds Few 25000 ft
Heat Index 75 °F
Dew Point 15 °F
Humidity 10%
Rainfall 0.00 in
Snow Depth Not available.
6:42 AM 7:07 PM
New Moon, 1% visible
METAR KRAL 281953Z 36015G24KT 10SM FEW250 23/M04 A3002 RMK AO2 PK WND 01027/1921 SLP153 T02331044

Get Your Daily Forecast Email!

Thanks for signing up!

Be on the lookout for a verification email in your inbox.

You'll start receiving severe weather alerts in your inbox..

×

10-Day Weather Forecast

Almanac

Astronomy

Mar. 28, 2017 Rise Set
Actual Time
Civil Twilight
Nautical Twilight
Astronomical Twilight
Moon
Length of Visible Light
Length of Day
Tomorrow will be .
, % of the Moon is Illuminated

Today's Extremes

State Highs State Lows

Community

WunderPhotos

Upload Photos

1,962,540 photos uploaded!

WunderBlog® & News

Nearby

Air Quality

  Air Quality AQ Index Pollutant
Not available.

Snow Depth

Station Depth Elevation

Earthquake Activity

City Distance Mag. Time & Date
Minimum magnitude displayed is 2.5.

Earthquake Activity

City Distance Mag. Time & Date
Minimum magnitude displayed is 2.5.

Coastal Water Temperatures

Place Temperature

Stations

Nearby Weather Stations

Station Location Temp. Windchill Dew Point Humidity Wind Precip. Elev Updated Type
                   

Watches & Warnings

Wind Advisory
Issued: 3:35 AM PDT Mar. 28, 2017 – National Weather Service

... Wind Advisory remains in effect until 2 PM PDT this
afternoon...

* winds... areas of north to northeast winds 20 to 30 mph with
gusts to 50 mph.

* Timing... wind strengthening this morning... then weakening
during the afternoon.

* Location... along coastal mountain slopes and through and below
passes and canyons.

* Impacts... the winds will make driving difficult... especially
for motorists in high profile vehicles. Broken tree limbs and
other wind blown debris will be possible.

Precautionary/preparedness actions...

A Wind Advisory means that winds of 35 mph are expected. Winds
this strong can make driving difficult... especially for high
profile vehicles. Use extra caution.